Time;durP1;ratioP1;P1;durP2;ratioP2;P2;SDS_P1;SDS_P2;PMS_P1;PMS_P2;Temp;Humidity;BMP_temperature;BMP_pressure;BME280_temperature;BME280_humidity;BME280_pressure;Samples;Min_cycle;Max_cycle;Signal;HPM_P1;HPM_P2
2024/01/09 00:01:47;;;;;;;25.45;13.20;;;;;;;;;;4994550;28;20491;-79
2024/01/09 00:04:12;;;;;;;20.17;12.30;;;;;;;;;;4984339;28;20022;-79
2024/01/09 00:06:38;;;;;;;15.73;9.18;;;;;;;;;;4988568;28;20042;-78
2024/01/09 00:09:05;;;;;;;13.38;8.60;;;;;;;;;;4989682;28;20113;-79
2024/01/09 00:11:32;;;;;;;17.52;11.30;;;;;;;;;;4989002;28;20388;-80
2024/01/09 00:13:59;;;;;;;20.30;11.20;;;;;;;;;;4989880;28;20507;-79
2024/01/09 00:16:25;;;;;;;19.33;12.07;;;;;;;;;;4987788;28;20038;-80
2024/01/09 00:18:55;;;;;;;16.15;10.73;;;;;;;;;;4989624;28;20112;-79
2024/01/09 00:21:21;;;;;;;18.95;12.57;;;;;;;;;;4988670;28;20030;-78
2024/01/09 00:23:47;;;;;;;20.98;13.07;;;;;;;;;;4971721;28;20539;-79
2024/01/09 00:26:13;;;;;;;19.98;11.18;;;;;;;;;;4986866;28;20141;-80
2024/01/09 00:28:38;;;;;;;20.75;11.90;;;;;;;;;;4989050;28;20061;-81
2024/01/09 00:31:04;;;;;;;21.25;12.30;;;;;;;;;;4987803;28;20042;-80
2024/01/09 00:33:30;;;;;;;19.45;10.65;;;;;;;;;;4989159;28;20019;-80
2024/01/09 00:35:55;;;;;;;15.82;10.05;;;;;;;;;;4989271;28;20042;-79
2024/01/09 00:38:21;;;;;;;17.80;9.77;;;;;;;;;;4989206;28;20057;-79
2024/01/09 00:40:49;;;;;;;19.83;12.35;;;;;;;;;;4972228;28;20038;-80
2024/01/09 00:43:15;;;;;;;22.73;10.65;;;;;;;;;;4968036;28;20134;-79
2024/01/09 00:45:42;;;;;;;19.10;10.70;;;;;;;;;;4974438;28;20261;-79
2024/01/09 00:48:09;;;;;;;18.08;10.63;;;;;;;;;;4987803;28;20027;-79
2024/01/09 00:50:34;;;;;;;17.40;9.77;;;;;;;;;;4987963;28;20511;-80
2024/01/09 00:53:00;;;;;;;15.27;8.77;;;;;;;;;;4971723;28;20034;-78
2024/01/09 00:55:26;;;;;;;18.45;8.90;;;;;;;;;;4989061;28;20022;-79
2024/01/09 00:57:51;;;;;;;12.48;7.97;;;;;;;;;;4986261;28;20077;-79
2024/01/09 01:00:18;;;;;;;11.65;7.25;;;;;;;;;;4988205;28;20042;-79
2024/01/09 01:02:44;;;;;;;13.98;7.75;;;;;;;;;;4987772;28;20402;-79
2024/01/09 01:05:16;;;;;;;10.93;7.28;;;;;;;;;;4988422;28;20038;-80
2024/01/09 01:07:43;;;;;;;11.77;7.07;;;;;;;;;;4987668;28;20504;-80
2024/01/09 01:10:13;;;;;;;14.00;7.32;;;;;;;;;;4987590;28;20117;-79
2024/01/09 01:12:39;;;;;;;15.30;8.20;;;;;;;;;;4972104;28;20085;-80
2024/01/09 01:15:06;;;;;;;11.55;7.13;;;;;;;;;;4989656;28;20032;-80
2024/01/09 01:17:32;;;;;;;13.20;7.80;;;;;;;;;;5006962;28;20029;-78
2024/01/09 01:19:58;;;;;;;13.32;8.30;;;;;;;;;;5008529;28;20125;-81
2024/01/09 01:22:24;;;;;;;13.60;7.47;;;;;;;;;;5008380;28;20517;-80
2024/01/09 01:24:51;;;;;;;15.55;8.05;;;;;;;;;;4973980;28;20057;-81
2024/01/09 01:27:17;;;;;;;15.93;8.13;;;;;;;;;;4997906;28;20049;-80
2024/01/09 01:29:43;;;;;;;14.35;8.40;;;;;;;;;;4991253;28;20034;-80
2024/01/09 01:32:10;;;;;;;16.60;8.93;;;;;;;;;;4975277;28;20126;-80
2024/01/09 01:34:37;;;;;;;15.07;8.63;;;;;;;;;;5000470;28;20117;-80
2024/01/09 01:37:03;;;;;;;14.77;8.38;;;;;;;;;;4991502;28;20117;-78
2024/01/09 01:39:29;;;;;;;12.57;8.27;;;;;;;;;;4991347;28;20105;-79
2024/01/09 01:41:55;;;;;;;13.57;8.02;;;;;;;;;;4991073;28;20077;-79
2024/01/09 01:44:22;;;;;;;16.85;8.60;;;;;;;;;;4992175;28;20041;-80
2024/01/09 01:46:49;;;;;;;12.30;7.70;;;;;;;;;;4991072;28;20041;-79
2024/01/09 01:49:17;;;;;;;12.70;7.28;;;;;;;;;;4992156;28;20479;-79
2024/01/09 01:51:47;;;;;;;12.98;7.47;;;;;;;;;;4991062;28;20038;-79
2024/01/09 01:54:14;;;;;;;12.68;7.20;;;;;;;;;;4992193;28;20476;-78
2024/01/09 01:56:41;;;;;;;12.00;7.05;;;;;;;;;;4991058;28;20092;-79
2024/01/09 01:59:10;;;;;;;9.27;6.07;;;;;;;;;;4992157;28;20030;-79
2024/01/09 02:01:36;;;;;;;9.40;5.47;;;;;;;;;;4991985;28;20061;-79
2024/01/09 02:04:03;;;;;;;9.70;5.90;;;;;;;;;;5000061;28;20026;-78
2024/01/09 02:06:33;;;;;;;12.32;5.70;;;;;;;;;;4991986;28;20125;-80
2024/01/09 02:08:59;;;;;;;12.23;5.93;;;;;;;;;;4984434;28;20460;-79
2024/01/09 02:11:25;;;;;;;9.70;5.43;;;;;;;;;;4992097;28;20030;-80
2024/01/09 02:13:51;;;;;;;8.68;5.10;;;;;;;;;;4991870;28;20507;-80
2024/01/09 02:16:18;;;;;;;9.30;5.47;;;;;;;;;;4991444;28;20250;-79
2024/01/09 02:18:45;;;;;;;9.75;5.18;;;;;;;;;;4991566;28;20026;-79
2024/01/09 02:21:11;;;;;;;11.35;5.10;;;;;;;;;;4991512;28;20037;-79
2024/01/09 02:23:38;;;;;;;8.65;5.20;;;;;;;;;;4991277;28;20463;-82
2024/01/09 02:26:05;;;;;;;8.43;4.70;;;;;;;;;;4991591;28;20035;-81
2024/01/09 02:28:33;;;;;;;8.93;5.32;;;;;;;;;;4991367;28;20034;-80
2024/01/09 02:31:00;;;;;;;9.35;5.30;;;;;;;;;;4994695;28;20037;-80
2024/01/09 02:33:27;;;;;;;5.90;4.30;;;;;;;;;;4997512;28;20041;-80
2024/01/09 02:35:53;;;;;;;5.68;3.58;;;;;;;;;;5001235;28;20041;-79
2024/01/09 02:38:20;;;;;;;6.43;3.70;;;;;;;;;;4991146;28;20117;-79
2024/01/09 02:40:46;;;;;;;7.97;4.68;;;;;;;;;;4991349;28;20030;-80
2024/01/09 02:43:12;;;;;;;8.50;4.07;;;;;;;;;;4993351;28;20453;-79
2024/01/09 02:45:38;;;;;;;8.52;4.57;;;;;;;;;;4996670;28;20069;-80
2024/01/09 02:48:04;;;;;;;9.27;5.60;;;;;;;;;;4995698;28;20042;-80
2024/01/09 02:50:30;;;;;;;7.30;4.43;;;;;;;;;;4995615;28;20483;-80
2024/01/09 02:52:56;;;;;;;8.07;4.75;;;;;;;;;;4996978;28;20034;-81
2024/01/09 02:55:22;;;;;;;8.82;4.65;;;;;;;;;;4996608;28;20031;-80
2024/01/09 02:57:48;;;;;;;7.18;4.10;;;;;;;;;;4996776;28;20022;-79
2024/01/09 03:00:13;;;;;;;8.43;3.90;;;;;;;;;;4996873;28;20038;-78
2024/01/09 03:02:40;;;;;;;8.15;3.75;;;;;;;;;;4979775;28;20399;-80
2024/01/09 03:05:07;;;;;;;9.73;4.72;;;;;;;;;;4995232;28;20408;-79
2024/01/09 03:07:34;;;;;;;8.00;4.80;;;;;;;;;;4997340;28;20030;-80
2024/01/09 03:10:01;;;;;;;7.30;4.50;;;;;;;;;;4996708;28;20109;-79
2024/01/09 03:12:26;;;;;;;7.90;4.53;;;;;;;;;;4979072;28;20058;-80
2024/01/09 03:14:53;;;;;;;7.43;4.13;;;;;;;;;;4979101;28;20404;-78
2024/01/09 03:17:19;;;;;;;7.40;4.28;;;;;;;;;;4996494;28;20056;-79
2024/01/09 03:19:45;;;;;;;8.45;4.00;;;;;;;;;;4996951;28;20391;-79
2024/01/09 03:22:11;;;;;;;6.80;3.97;;;;;;;;;;4994863;28;20117;-79
2024/01/09 03:24:37;;;;;;;7.10;3.75;;;;;;;;;;5004244;28;20125;-80
2024/01/09 03:27:04;;;;;;;5.95;3.58;;;;;;;;;;4994546;28;20034;-79
2024/01/09 03:29:30;;;;;;;5.93;3.30;;;;;;;;;;4978753;28;20596;-80
2024/01/09 03:31:56;;;;;;;8.88;3.83;;;;;;;;;;4994671;28;20038;-80
2024/01/09 03:34:22;;;;;;;8.07;4.70;;;;;;;;;;4995658;28;20018;-80
2024/01/09 03:36:48;;;;;;;8.85;4.30;;;;;;;;;;4995915;28;20042;-80
2024/01/09 03:39:17;;;;;;;6.63;3.47;;;;;;;;;;4994682;28;20038;-80
2024/01/09 03:41:44;;;;;;;6.65;3.70;;;;;;;;;;4994456;28;20030;-80
2024/01/09 03:44:09;;;;;;;7.65;3.25;;;;;;;;;;4994566;28;20041;-80
2024/01/09 03:46:36;;;;;;;7.43;4.00;;;;;;;;;;4995653;28;20038;-78
2024/01/09 03:49:02;;;;;;;7.90;4.03;;;;;;;;;;4995715;28;20022;-79
2024/01/09 03:51:29;;;;;;;7.03;4.10;;;;;;;;;;4994382;28;20062;-81
2024/01/09 03:53:55;;;;;;;9.02;4.13;;;;;;;;;;4978213;28;20073;-80
2024/01/09 03:56:20;;;;;;;7.10;4.03;;;;;;;;;;4995235;28;20059;-79
2024/01/09 03:58:46;;;;;;;10.55;3.88;;;;;;;;;;4994440;28;20117;-80
2024/01/09 04:01:13;;;;;;;16.13;5.65;;;;;;;;;;4994826;28;20046;-80
2024/01/09 04:03:40;;;;;;;7.35;4.18;;;;;;;;;;4993736;28;20033;-80
2024/01/09 04:06:06;;;;;;;7.10;5.18;;;;;;;;;;4994370;28;20046;-80
2024/01/09 04:08:32;;;;;;;7.57;4.40;;;;;;;;;;5001284;28;20042;-80
2024/01/09 04:10:57;;;;;;;10.50;6.38;;;;;;;;;;4996170;28;20109;-80
2024/01/09 04:13:23;;;;;;;5.70;3.88;;;;;;;;;;4983087;28;20056;-80
2024/01/09 04:15:50;;;;;;;4.35;3.05;;;;;;;;;;4979757;28;20211;-78
2024/01/09 04:18:17;;;;;;;5.38;3.20;;;;;;;;;;4999274;28;20062;-79
2024/01/09 04:20:43;;;;;;;5.72;3.10;;;;;;;;;;4996934;28;20035;-79
2024/01/09 04:23:09;;;;;;;5.90;3.35;;;;;;;;;;4994696;28;20038;-80
2024/01/09 04:25:36;;;;;;;5.68;3.20;;;;;;;;;;5001327;28;20061;-79
2024/01/09 04:28:03;;;;;;;5.85;3.35;;;;;;;;;;4994157;28;20045;-79
2024/01/09 04:30:30;;;;;;;8.35;4.20;;;;;;;;;;4993348;28;20440;-78
2024/01/09 04:32:56;;;;;;;7.78;3.28;;;;;;;;;;4985192;28;20113;-77
2024/01/09 04:35:21;;;;;;;6.07;3.42;;;;;;;;;;4994194;28;20042;-77
2024/01/09 04:37:47;;;;;;;5.60;2.95;;;;;;;;;;4994977;28;20046;-78
2024/01/09 04:40:13;;;;;;;7.13;3.67;;;;;;;;;;5004276;28;20495;-78
2024/01/09 04:42:39;;;;;;;8.45;3.97;;;;;;;;;;5011773;28;20029;-77
2024/01/09 04:45:05;;;;;;;4.53;3.00;;;;;;;;;;5013798;28;20045;-77
2024/01/09 04:47:31;;;;;;;4.75;3.53;;;;;;;;;;5012240;28;20033;-77
2024/01/09 04:49:57;;;;;;;5.43;3.25;;;;;;;;;;5012526;28;20407;-79
2024/01/09 04:52:28;;;;;;;5.20;3.28;;;;;;;;;;5013472;28;20041;-77
2024/01/09 04:54:56;;;;;;;2.85;2.10;;;;;;;;;;5013581;28;20034;-80
2024/01/09 04:57:24;;;;;;;4.38;2.53;;;;;;;;;;4996140;28;20057;-78
2024/01/09 04:59:50;;;;;;;6.38;2.65;;;;;;;;;;5013084;28;20065;-78
2024/01/09 05:02:16;;;;;;;5.50;2.70;;;;;;;;;;5011900;28;20057;-78
2024/01/09 05:04:41;;;;;;;3.17;2.30;;;;;;;;;;5012877;28;20037;-78
2024/01/09 05:07:07;;;;;;;3.90;2.80;;;;;;;;;;5012522;28;20065;-80
2024/01/09 05:09:33;;;;;;;3.10;2.40;;;;;;;;;;5012709;28;20044;-78
2024/01/09 05:11:58;;;;;;;3.90;2.67;;;;;;;;;;5013319;28;20045;-78
2024/01/09 05:14:25;;;;;;;4.47;2.72;;;;;;;;;;5012915;28;20026;-78
2024/01/09 05:16:51;;;;;;;4.07;2.70;;;;;;;;;;5012865;28;20439;-77
2024/01/09 05:19:17;;;;;;;4.57;2.53;;;;;;;;;;5012998;28;20025;-77
2024/01/09 05:21:42;;;;;;;3.72;2.13;;;;;;;;;;5011558;28;20529;-76
2024/01/09 05:24:08;;;;;;;4.05;2.50;;;;;;;;;;5012971;28;20030;-77
2024/01/09 05:26:34;;;;;;;6.00;2.63;;;;;;;;;;5013193;28;20052;-78
2024/01/09 05:28:59;;;;;;;3.28;2.22;;;;;;;;;;5013120;28;20195;-79
2024/01/09 05:31:25;;;;;;;3.40;1.90;;;;;;;;;;5012937;28;20177;-78
2024/01/09 05:33:51;;;;;;;4.95;2.58;;;;;;;;;;4994984;28;20022;-77
2024/01/09 05:36:22;;;;;;;5.30;2.85;;;;;;;;;;5011409;28;20135;-78
2024/01/09 05:38:51;;;;;;;6.63;2.60;;;;;;;;;;5011692;28;20444;-78
2024/01/09 05:41:23;;;;;;;3.80;2.53;;;;;;;;;;5011559;28;20037;-78
2024/01/09 05:43:49;;;;;;;4.18;2.65;;;;;;;;;;5012822;28;20033;-78
2024/01/09 05:46:15;;;;;;;3.58;2.45;;;;;;;;;;5011320;28;20041;-78
2024/01/09 05:48:42;;;;;;;4.15;1.90;;;;;;;;;;5012347;28;20547;-78
2024/01/09 05:51:09;;;;;;;3.72;2.00;;;;;;;;;;5012151;28;20057;-78
2024/01/09 05:53:36;;;;;;;2.05;1.50;;;;;;;;;;5010855;28;20045;-77
2024/01/09 05:56:06;;;;;;;2.97;1.75;;;;;;;;;;5010848;28;20029;-77
2024/01/09 05:58:33;;;;;;;3.78;1.80;;;;;;;;;;5011143;28;20083;-77
2024/01/09 06:00:59;;;;;;;3.72;1.80;;;;;;;;;;5011990;28;20125;-77
2024/01/09 06:03:25;;;;;;;2.95;1.42;;;;;;;;;;4993877;28;20056;-77
2024/01/09 06:05:50;;;;;;;2.50;1.50;;;;;;;;;;5015455;28;20030;-77
2024/01/09 06:08:16;;;;;;;2.65;1.45;;;;;;;;;;5004487;28;20042;-78
2024/01/09 06:10:42;;;;;;;2.25;1.50;;;;;;;;;;4992567;28;20026;-78
2024/01/09 06:13:08;;;;;;;1.67;1.10;;;;;;;;;;5001956;28;20455;-77
2024/01/09 06:15:34;;;;;;;1.30;0.90;;;;;;;;;;5010594;28;20120;-77
2024/01/09 06:17:59;;;;;;;3.45;1.95;;;;;;;;;;5010917;28;20591;-78
2024/01/09 06:20:25;;;;;;;1.63;0.98;;;;;;;;;;5011833;28;20037;-78
2024/01/09 06:22:51;;;;;;;1.02;0.80;;;;;;;;;;4995227;28;20085;-79
2024/01/09 06:25:18;;;;;;;0.82;0.70;;;;;;;;;;4972772;28;20038;-78
2024/01/09 06:27:45;;;;;;;2.67;1.00;;;;;;;;;;5009471;28;20037;-78
2024/01/09 06:30:12;;;;;;;4.13;1.00;;;;;;;;;;5002310;28;20487;-78
2024/01/09 06:32:37;;;;;;;2.17;1.25;;;;;;;;;;5001103;28;20712;-77
2024/01/09 06:35:03;;;;;;;1.92;1.00;;;;;;;;;;5000367;28;20026;-78
2024/01/09 06:37:31;;;;;;;1.95;1.20;;;;;;;;;;5002102;28;20030;-78
2024/01/09 06:39:56;;;;;;;2.05;1.48;;;;;;;;;;4997951;28;20042;-81
2024/01/09 06:42:22;;;;;;;3.75;1.52;;;;;;;;;;5001218;28;20034;-81
2024/01/09 06:44:49;;;;;;;4.82;1.80;;;;;;;;;;4998539;28;20034;-79
2024/01/09 06:47:14;;;;;;;3.85;1.75;;;;;;;;;;5000397;28;20026;-81
2024/01/09 06:49:40;;;;;;;4.90;2.58;;;;;;;;;;4999434;28;20049;-80
2024/01/09 06:52:08;;;;;;;3.17;1.75;;;;;;;;;;4991530;28;20185;-81
2024/01/09 06:54:34;;;;;;;5.55;2.03;;;;;;;;;;4989933;28;20022;-80
2024/01/09 06:57:05;;;;;;;3.78;1.92;;;;;;;;;;4991179;28;20026;-80
2024/01/09 06:59:34;;;;;;;2.35;1.25;;;;;;;;;;4985846;28;20022;-80
2024/01/09 07:02:01;;;;;;;4.40;1.67;;;;;;;;;;4988602;28;20026;-80
2024/01/09 07:04:26;;;;;;;6.35;1.92;;;;;;;;;;4985940;28;20389;-78
2024/01/09 07:06:52;;;;;;;4.32;1.45;;;;;;;;;;4988979;28;20168;-79
2024/01/09 07:09:19;;;;;;;3.80;1.92;;;;;;;;;;4991384;28;20025;-79
2024/01/09 07:11:44;;;;;;;3.67;1.80;;;;;;;;;;4989417;28;20034;-78
2024/01/09 07:14:11;;;;;;;3.92;1.63;;;;;;;;;;4990381;28;20388;-79
2024/01/09 07:16:38;;;;;;;4.95;1.30;;;;;;;;;;4989926;28;20022;-79
2024/01/09 07:19:04;;;;;;;2.03;1.13;;;;;;;;;;4990343;28;20176;-78
2024/01/09 07:21:31;;;;;;;4.18;1.88;;;;;;;;;;5007999;28;20113;-80
2024/01/09 07:23:57;;;;;;;2.78;1.63;;;;;;;;;;5021560;28;20038;-79
2024/01/09 07:26:22;;;;;;;3.38;1.83;;;;;;;;;;4991288;28;20034;-79
2024/01/09 07:28:49;;;;;;;3.58;1.98;;;;;;;;;;4991409;28;20039;-79
2024/01/09 07:31:15;;;;;;;2.78;1.00;;;;;;;;;;4994738;28;20022;-77
2024/01/09 07:33:42;;;;;;;3.10;1.48;;;;;;;;;;4994211;28;20076;-81
2024/01/09 07:36:10;;;;;;;1.48;0.98;;;;;;;;;;4994471;28;20045;-80
2024/01/09 07:38:35;;;;;;;1.15;0.88;;;;;;;;;;4992666;28;20029;-79
2024/01/09 07:41:03;;;;;;;2.60;1.00;;;;;;;;;;5009558;28;20034;-81
2024/01/09 07:43:29;;;;;;;3.40;1.50;;;;;;;;;;4997616;28;20080;-82
2024/01/09 07:45:55;;;;;;;1.55;1.15;;;;;;;;;;5005930;28;20414;-79
2024/01/09 07:48:20;;;;;;;3.17;1.20;;;;;;;;;;5002504;28;20481;-79
2024/01/09 07:50:49;;;;;;;2.22;0.85;;;;;;;;;;4996624;28;20492;-79
2024/01/09 07:53:15;;;;;;;2.70;1.30;;;;;;;;;;5002032;28;20030;-79
2024/01/09 07:55:42;;;;;;;2.65;1.50;;;;;;;;;;5006995;28;20044;-80
2024/01/09 07:58:08;;;;;;;1.67;1.00;;;;;;;;;;4996115;28;20038;-81
2024/01/09 08:00:34;;;;;;;1.90;1.30;;;;;;;;;;4991487;28;20030;-81
2024/01/09 08:03:03;;;;;;;2.00;1.30;;;;;;;;;;5004985;28;20040;-80
2024/01/09 08:05:30;;;;;;;1.98;1.40;;;;;;;;;;5009171;28;20066;-82
2024/01/09 08:07:56;;;;;;;1.40;0.90;;;;;;;;;;5000517;28;20034;-81
2024/01/09 08:10:22;;;;;;;1.42;1.00;;;;;;;;;;5001857;28;20460;-81
2024/01/09 08:12:47;;;;;;;1.85;1.17;;;;;;;;;;5004794;28;20038;-80
2024/01/09 08:15:14;;;;;;;1.73;1.20;;;;;;;;;;5003095;28;20030;-80
2024/01/09 08:17:41;;;;;;;2.20;1.10;;;;;;;;;;5006922;28;20172;-80
2024/01/09 08:20:07;;;;;;;1.73;1.05;;;;;;;;;;4995629;28;20141;-80
2024/01/09 08:22:34;;;;;;;1.85;0.80;;;;;;;;;;5003897;28;20029;-80
2024/01/09 08:25:01;;;;;;;1.38;0.90;;;;;;;;;;4995814;28;20049;-80
2024/01/09 08:27:27;;;;;;;1.23;0.85;;;;;;;;;;5008765;28;20062;-79
2024/01/09 08:29:52;;;;;;;1.42;0.80;;;;;;;;;;5003741;28;20135;-80
2024/01/09 08:32:19;;;;;;;1.10;0.90;;;;;;;;;;4993536;28;20022;-80
2024/01/09 08:34:45;;;;;;;2.03;0.90;;;;;;;;;;5001930;28;20038;-80
2024/01/09 08:37:12;;;;;;;1.50;1.00;;;;;;;;;;5000565;28;20360;-81
2024/01/09 08:39:38;;;;;;;2.13;1.00;;;;;;;;;;4993951;28;20053;-78
2024/01/09 08:42:04;;;;;;;1.55;0.70;;;;;;;;;;4990685;28;20121;-81
2024/01/09 08:44:32;;;;;;;2.85;1.02;;;;;;;;;;4987228;28;20092;-78
2024/01/09 08:46:58;;;;;;;1.52;1.00;;;;;;;;;;5003646;28;20454;-80
2024/01/09 08:49:24;;;;;;;0.90;0.70;;;;;;;;;;5004768;28;20060;-78
2024/01/09 08:51:50;;;;;;;1.73;0.98;;;;;;;;;;5006784;28;20098;-80
2024/01/09 08:54:16;;;;;;;2.03;1.30;;;;;;;;;;5004010;28;20022;-79
2024/01/09 08:56:42;;;;;;;2.50;1.70;;;;;;;;;;5000411;28;20527;-81
2024/01/09 08:59:11;;;;;;;3.67;1.50;;;;;;;;;;5001671;28;20080;-81
2024/01/09 09:01:36;;;;;;;1.83;0.95;;;;;;;;;;4997154;28;20084;-81
2024/01/09 09:04:03;;;;;;;4.50;1.20;;;;;;;;;;4997599;28;20384;-79
2024/01/09 09:06:29;;;;;;;1.67;0.85;;;;;;;;;;4993215;28;20381;-80
2024/01/09 09:08:55;;;;;;;1.40;0.95;;;;;;;;;;5000289;28;20030;-82
2024/01/09 09:11:21;;;;;;;1.80;1.15;;;;;;;;;;5000476;28;20030;-83
2024/01/09 09:13:47;;;;;;;1.27;0.93;;;;;;;;;;5007191;28;20455;-80
2024/01/09 09:16:14;;;;;;;2.25;1.00;;;;;;;;;;5005524;28;20026;-81
2024/01/09 09:18:42;;;;;;;1.73;1.13;;;;;;;;;;5006807;28;20030;-80
2024/01/09 09:21:09;;;;;;;1.70;1.33;;;;;;;;;;5003527;28;20034;-80
2024/01/09 09:23:34;;;;;;;0.98;0.88;;;;;;;;;;4995892;28;20026;-80
2024/01/09 09:26:00;;;;;;;4.00;1.00;;;;;;;;;;5003333;28;20041;-82
2024/01/09 09:28:29;;;;;;;1.95;1.20;;;;;;;;;;5003281;28;20042;-82
2024/01/09 09:30:55;;;;;;;3.08;1.00;;;;;;;;;;4997269;28;20488;-80
2024/01/09 09:33:22;;;;;;;1.95;1.25;;;;;;;;;;5000809;28;20041;-82
2024/01/09 09:35:48;;;;;;;1.65;0.98;;;;;;;;;;5001090;28;20046;-83
2024/01/09 09:38:15;;;;;;;1.65;1.00;;;;;;;;;;5001969;28;20022;-84
2024/01/09 09:40:42;;;;;;;1.77;1.05;;;;;;;;;;5001807;28;20061;-81
2024/01/09 09:43:14;;;;;;;3.45;0.90;;;;;;;;;;4999572;28;20062;-85
2024/01/09 09:45:47;;;;;;;1.45;1.02;;;;;;;;;;4991367;28;20038;-82
2024/01/09 09:48:16;;;;;;;1.52;0.98;;;;;;;;;;4995448;28;20133;-82
2024/01/09 09:50:42;;;;;;;1.45;0.85;;;;;;;;;;5003976;28;20033;-83
2024/01/09 09:53:09;;;;;;;2.67;1.33;;;;;;;;;;5002885;28;20045;-83
2024/01/09 09:55:36;;;;;;;1.42;1.20;;;;;;;;;;4997229;28;20391;-80
2024/01/09 09:58:08;;;;;;;1.92;1.35;;;;;;;;;;5003150;28;20408;-83
2024/01/09 10:00:35;;;;;;;1.25;1.00;;;;;;;;;;5010550;28;20029;-82
2024/01/09 10:03:02;;;;;;;3.75;1.60;;;;;;;;;;5002723;28;20034;-82
2024/01/09 10:05:29;;;;;;;2.63;1.20;;;;;;;;;;5004443;28;20038;-81
2024/01/09 10:07:58;;;;;;;3.05;1.50;;;;;;;;;;5004588;28;20059;-83
2024/01/09 10:10:25;;;;;;;2.20;1.40;;;;;;;;;;4985043;28;20081;-82
2024/01/09 10:12:57;;;;;;;1.90;1.10;;;;;;;;;;4983355;28;20030;-81
2024/01/09 10:15:22;;;;;;;2.78;1.13;;;;;;;;;;4984685;28;20065;-81
2024/01/09 10:17:49;;;;;;;1.77;1.10;;;;;;;;;;5002357;28;20132;-81
2024/01/09 10:20:15;;;;;;;7.40;1.42;;;;;;;;;;4994259;28;20129;-83
2024/01/09 10:22:43;;;;;;;1.60;1.20;;;;;;;;;;4998913;28;20175;-81
2024/01/09 10:25:10;;;;;;;1.80;1.23;;;;;;;;;;4992815;28;20030;-83
2024/01/09 10:27:38;;;;;;;1.23;1.02;;;;;;;;;;5002882;28;20032;-84
2024/01/09 10:30:10;;;;;;;1.63;0.70;;;;;;;;;;5004564;28;20365;-81
2024/01/09 10:32:39;;;;;;;1.60;1.10;;;;;;;;;;5005957;28;20126;-83
2024/01/09 10:35:07;;;;;;;2.10;1.08;;;;;;;;;;5003572;28;20065;-83
2024/01/09 10:37:34;;;;;;;2.08;1.00;;;;;;;;;;5008604;28;20069;-83
2024/01/09 10:40:00;;;;;;;1.95;1.10;;;;;;;;;;4999223;28;20084;-81
2024/01/09 10:42:30;;;;;;;1.75;1.00;;;;;;;;;;4999574;28;20228;-81
2024/01/09 10:44:59;;;;;;;1.70;1.05;;;;;;;;;;5003149;28;20049;-80
2024/01/09 10:47:27;;;;;;;1.70;1.10;;;;;;;;;;5004570;28;20037;-82
2024/01/09 10:49:54;;;;;;;2.55;1.55;;;;;;;;;;5014924;28;20479;-82
2024/01/09 10:52:21;;;;;;;1.60;0.90;;;;;;;;;;4985524;28;20134;-82
2024/01/09 10:54:47;;;;;;;1.95;1.00;;;;;;;;;;5002629;28;20073;-81
2024/01/09 10:57:14;;;;;;;2.67;1.27;;;;;;;;;;5003894;28;20071;-81
2024/01/09 10:59:42;;;;;;;1.88;1.20;;;;;;;;;;5003601;28;20057;-83
2024/01/09 11:02:13;;;;;;;2.72;1.58;;;;;;;;;;4996163;28;20117;-80
2024/01/09 11:04:44;;;;;;;1.70;1.20;;;;;;;;;;5001559;28;20617;-80
2024/01/09 11:07:16;;;;;;;2.38;1.65;;;;;;;;;;5011096;28;20426;-81
2024/01/09 11:09:45;;;;;;;1.85;1.20;;;;;;;;;;5012699;28;20104;-80
2024/01/09 11:12:25;;;;;;;2.20;1.40;;;;;;;;;;4994317;28;20120;-79
2024/01/09 11:14:57;;;;;;;2.75;1.70;;;;;;;;;;4995606;28;20089;-78
2024/01/09 11:17:25;;;;;;;1.60;1.05;;;;;;;;;;5001634;28;20121;-79
2024/01/09 11:19:51;;;;;;;2.42;1.30;;;;;;;;;;5002005;28;20045;-80
2024/01/09 11:22:18;;;;;;;1.85;1.10;;;;;;;;;;5001438;28;20042;-81
2024/01/09 11:24:46;;;;;;;2.00;1.40;;;;;;;;;;5003653;28;20563;-80
2024/01/09 11:27:13;;;;;;;2.42;1.20;;;;;;;;;;4994620;28;20049;-80
2024/01/09 11:29:53;;;;;;;3.88;1.45;;;;;;;;;;4992419;28;20041;-80
2024/01/09 11:32:24;;;;;;;1.60;1.25;;;;;;;;;;5000727;28;20416;-80
2024/01/09 11:35:14;;;;;;;1.92;0.90;;;;;;;;;;4994543;28;20034;-80
2024/01/09 11:37:49;;;;;;;3.58;1.48;;;;;;;;;;4993376;28;20322;-81
2024/01/09 11:40:18;;;;;;;6.90;1.40;;;;;;;;;;4999679;28;20049;-81
2024/01/09 11:42:52;;;;;;;1.60;0.90;;;;;;;;;;4994016;28;20033;-80
2024/01/09 11:45:25;;;;;;;2.60;1.25;;;;;;;;;;4990459;28;20396;-80
2024/01/09 11:47:54;;;;;;;4.43;1.42;;;;;;;;;;5002971;28;20545;-79
2024/01/09 11:50:21;;;;;;;3.55;1.33;;;;;;;;;;5005772;28;20080;-81
2024/01/09 11:52:48;;;;;;;4.80;1.40;;;;;;;;;;5011426;28;20061;-82
2024/01/09 11:55:15;;;;;;;3.42;1.48;;;;;;;;;;4993984;28;20030;-81
2024/01/09 11:57:42;;;;;;;4.57;1.50;;;;;;;;;;5002347;28;20083;-81
2024/01/09 12:00:10;;;;;;;6.53;1.92;;;;;;;;;;4993273;28;20424;-81
2024/01/09 12:02:37;;;;;;;2.80;1.60;;;;;;;;;;4994605;28;20105;-80
2024/01/09 12:05:07;;;;;;;6.55;1.40;;;;;;;;;;4993416;28;20045;-80
2024/01/09 12:07:34;;;;;;;14.88;2.38;;;;;;;;;;4991211;28;20046;-79
2024/01/09 12:10:01;;;;;;;11.40;2.95;;;;;;;;;;4997809;28;20524;-80
2024/01/09 12:12:27;;;;;;;3.90;1.05;;;;;;;;;;5000117;28;20388;-79
2024/01/09 12:14:55;;;;;;;1.50;0.93;;;;;;;;;;4980623;28;20084;-78
2024/01/09 12:17:27;;;;;;;2.25;1.23;;;;;;;;;;5005155;28;20046;-78
2024/01/09 12:19:55;;;;;;;2.38;1.48;;;;;;;;;;4992566;28;20066;-79
2024/01/09 12:22:21;;;;;;;3.67;1.90;;;;;;;;;;5001479;28;20057;-80
2024/01/09 12:24:51;;;;;;;2.22;1.35;;;;;;;;;;5001714;28;20125;-79
2024/01/09 12:27:21;;;;;;;1.92;1.30;;;;;;;;;;4999219;28;20491;-78
2024/01/09 12:29:48;;;;;;;4.10;1.55;;;;;;;;;;5009782;28;20041;-79
2024/01/09 12:32:15;;;;;;;3.33;2.13;;;;;;;;;;4993253;28;20038;-79
2024/01/09 12:34:45;;;;;;;3.50;2.05;;;;;;;;;;5002016;28;20053;-78
2024/01/09 12:37:11;;;;;;;2.38;1.50;;;;;;;;;;5001004;28;20077;-78
2024/01/09 12:39:39;;;;;;;2.70;1.80;;;;;;;;;;5002213;28;20053;-79
2024/01/09 12:42:17;;;;;;;2.47;1.45;;;;;;;;;;5000868;28;20034;-78
2024/01/09 12:44:43;;;;;;;1.73;1.10;;;;;;;;;;4992465;28;20135;-77
2024/01/09 12:47:12;;;;;;;2.80;1.60;;;;;;;;;;4994012;28;20045;-77
2024/01/09 12:49:47;;;;;;;2.22;1.20;;;;;;;;;;4993862;28;20133;-79
2024/01/09 12:52:13;;;;;;;1.77;1.35;;;;;;;;;;4992168;28;20034;-79
2024/01/09 12:54:42;;;;;;;3.30;1.70;;;;;;;;;;5004637;28;20046;-78
2024/01/09 12:57:08;;;;;;;6.93;1.90;;;;;;;;;;5005327;28;20042;-77
2024/01/09 12:59:38;;;;;;;1.13;1.02;;;;;;;;;;4993683;28;20131;-79
2024/01/09 13:02:04;;;;;;;2.05;1.00;;;;;;;;;;4991721;28;20034;-79
2024/01/09 13:04:30;;;;;;;1.85;1.00;;;;;;;;;;4993225;28;20388;-78
2024/01/09 13:06:57;;;;;;;2.50;0.90;;;;;;;;;;4994354;28;20058;-79
2024/01/09 13:09:25;;;;;;;1.88;0.80;;;;;;;;;;4993435;28;20034;-79
2024/01/09 13:11:54;;;;;;;4.13;1.63;;;;;;;;;;4984242;28;20125;-80
2024/01/09 13:14:21;;;;;;;4.13;1.30;;;;;;;;;;4992931;28;20032;-79
2024/01/09 13:16:51;;;;;;;2.17;1.50;;;;;;;;;;4994710;28;20034;-79
2024/01/09 13:19:19;;;;;;;3.05;1.35;;;;;;;;;;4996713;28;20093;-79
2024/01/09 13:21:46;;;;;;;0.98;0.77;;;;;;;;;;4991285;28;20026;-77
2024/01/09 13:24:13;;;;;;;2.22;1.10;;;;;;;;;;4990921;28;20031;-78
2024/01/09 13:26:41;;;;;;;2.15;1.45;;;;;;;;;;5015401;28;20144;-77
2024/01/09 13:29:09;;;;;;;1.73;1.17;;;;;;;;;;4992869;28;20136;-79
2024/01/09 13:31:36;;;;;;;3.03;1.50;;;;;;;;;;4991342;28;20022;-79
2024/01/09 13:34:02;;;;;;;6.10;2.00;;;;;;;;;;4984096;28;20026;-78
2024/01/09 13:36:28;;;;;;;5.32;1.50;;;;;;;;;;4994429;28;20030;-78
2024/01/09 13:38:57;;;;;;;5.10;1.60;;;;;;;;;;4998910;28;20034;-78
2024/01/09 13:41:26;;;;;;;3.03;1.50;;;;;;;;;;4991149;28;20034;-78
2024/01/09 13:43:51;;;;;;;4.38;1.42;;;;;;;;;;4990332;28;20054;-77
2024/01/09 13:46:18;;;;;;;3.80;1.80;;;;;;;;;;4991308;28;20061;-78
2024/01/09 13:48:45;;;;;;;4.40;2.13;;;;;;;;;;4992228;28;20019;-77
2024/01/09 13:51:12;;;;;;;7.70;1.50;;;;;;;;;;5023357;28;20120;-78
2024/01/09 13:53:37;;;;;;;17.55;2.15;;;;;;;;;;4992263;28;20038;-76
2024/01/09 13:56:04;;;;;;;2.15;1.10;;;;;;;;;;4992442;28;20507;-76
2024/01/09 13:58:30;;;;;;;4.90;1.60;;;;;;;;;;4992547;28;20042;-76
2024/01/09 14:00:56;;;;;;;6.35;1.90;;;;;;;;;;4975484;28;20520;-76
2024/01/09 14:03:25;;;;;;;2.90;1.60;;;;;;;;;;4993226;28;20070;-76
2024/01/09 14:05:52;;;;;;;5.57;1.75;;;;;;;;;;5010201;28;20092;-77
2024/01/09 14:08:18;;;;;;;7.05;1.80;;;;;;;;;;5012029;28;20064;-78
2024/01/09 14:10:47;;;;;;;5.18;1.70;;;;;;;;;;5010912;28;20076;-78
2024/01/09 14:13:13;;;;;;;5.85;1.55;;;;;;;;;;5010743;28;20405;-78
2024/01/09 14:15:39;;;;;;;7.50;2.00;;;;;;;;;;4994438;28;20038;-78
2024/01/09 14:18:06;;;;;;;7.32;1.75;;;;;;;;;;5011829;28;20510;-79
2024/01/09 14:20:33;;;;;;;7.93;2.05;;;;;;;;;;5017162;28;20034;-78
2024/01/09 14:23:00;;;;;;;3.38;1.70;;;;;;;;;;5015757;28;20421;-77
2024/01/09 14:25:28;;;;;;;4.05;1.50;;;;;;;;;;5016778;28;20033;-77
2024/01/09 14:27:54;;;;;;;11.90;2.33;;;;;;;;;;5016772;28;20026;-78
2024/01/09 14:30:21;;;;;;;14.93;3.42;;;;;;;;;;5012258;28;20068;-78
2024/01/09 14:32:48;;;;;;;10.52;1.80;;;;;;;;;;5011889;28;20080;-77
2024/01/09 14:35:15;;;;;;;3.90;1.77;;;;;;;;;;5011502;28;20034;-79
2024/01/09 14:37:44;;;;;;;1.67;1.23;;;;;;;;;;5013507;28;20042;-83
2024/01/09 14:40:11;;;;;;;7.10;1.80;;;;;;;;;;5000875;28;20361;-79